createdAt,value
2023-01-21T00:01:53.920Z,1019.48
2023-01-21T00:02:53.855Z,1019.46
2023-01-21T00:03:54.192Z,1019.50
2023-01-21T00:04:53.906Z,1019.58
2023-01-21T00:05:53.930Z,1019.61
2023-01-21T00:06:53.971Z,1019.63
2023-01-21T00:07:53.988Z,1019.68
2023-01-21T00:08:54.015Z,1019.66
2023-01-21T00:09:54.032Z,1019.64
2023-01-21T00:10:54.372Z,1019.66
2023-01-21T00:11:54.093Z,1019.63
2023-01-21T00:12:54.564Z,1019.67
2023-01-21T00:13:54.142Z,1019.70
2023-01-21T00:14:54.186Z,1019.73
2023-01-21T00:15:54.316Z,1019.69
2023-01-21T00:16:54.228Z,1019.75
2023-01-21T00:17:54.552Z,1019.72
2023-01-21T00:18:54.274Z,1019.75
2023-01-21T00:19:54.300Z,1019.73
2023-01-21T00:20:54.364Z,1019.74
2023-01-21T00:21:54.358Z,1019.73
2023-01-21T00:22:54.856Z,1019.78
2023-01-21T00:24:54.432Z,1019.78
2023-01-21T00:25:54.765Z,1019.77
2023-01-21T00:26:54.495Z,1019.79
2023-01-21T00:27:54.541Z,1019.81
2023-01-21T00:29:54.587Z,1019.86
2023-01-21T00:30:54.654Z,1019.87
2023-01-21T00:31:54.683Z,1019.91
2023-01-21T00:33:54.991Z,1019.91
2023-01-21T00:34:54.699Z,1019.93
2023-01-21T00:35:54.731Z,1019.92
2023-01-21T00:36:56.556Z,1019.98
2023-01-21T00:37:54.783Z,1019.97
2023-01-21T00:38:54.813Z,1019.99
2023-01-21T00:39:54.864Z,1019.99
2023-01-21T00:40:55.158Z,1020.02
2023-01-21T00:41:54.895Z,1020.03
2023-01-21T00:42:54.911Z,1020.08
2023-01-21T00:43:54.944Z,1020.14
2023-01-21T00:44:55.069Z,1020.13
2023-01-21T00:45:55.073Z,1020.11
2023-01-21T00:46:55.020Z,1020.10
2023-01-21T00:47:55.353Z,1020.12
2023-01-21T00:48:55.071Z,1020.14
2023-01-21T00:49:55.098Z,1020.21
2023-01-21T00:50:55.161Z,1020.22
2023-01-21T00:51:55.155Z,1020.20
2023-01-21T00:53:55.205Z,1020.27
2023-01-21T00:54:55.542Z,1020.31
2023-01-21T00:55:55.264Z,1020.29
2023-01-21T00:56:55.283Z,1020.29
2023-01-21T00:57:55.334Z,1020.34
2023-01-21T00:58:55.347Z,1020.32
2023-01-21T00:59:55.367Z,1020.34
2023-01-21T01:00:55.395Z,1020.34
2023-01-21T01:01:55.739Z,1020.37
2023-01-21T01:02:55.535Z,1020.37
2023-01-21T01:03:55.581Z,1020.42
2023-01-21T01:04:55.497Z,1020.46
2023-01-21T01:05:55.521Z,1020.47
2023-01-21T01:06:55.550Z,1020.45
2023-01-21T01:07:55.581Z,1020.43
2023-01-21T01:08:55.946Z,1020.46
2023-01-21T01:09:55.679Z,1020.47
2023-01-21T01:10:55.677Z,1020.48
2023-01-21T01:11:55.687Z,1020.55
2023-01-21T01:12:55.721Z,1020.56
2023-01-21T01:13:55.741Z,1020.60
2023-01-21T01:14:55.764Z,1020.58
2023-01-21T01:15:56.190Z,1020.57
2023-01-21T01:16:55.814Z,1020.60
2023-01-21T01:17:55.881Z,1020.63
2023-01-21T01:18:55.871Z,1020.66
2023-01-21T01:19:55.902Z,1020.63
2023-01-21T01:20:55.985Z,1020.63
2023-01-21T01:21:55.950Z,1020.67
2023-01-21T01:22:56.277Z,1020.66
2023-01-21T01:23:55.996Z,1020.69
2023-01-21T01:24:56.027Z,1020.67
2023-01-21T01:25:56.052Z,1020.69
2023-01-21T01:26:56.096Z,1020.72
2023-01-21T01:27:56.107Z,1020.73
2023-01-21T01:28:56.136Z,1020.75
2023-01-21T01:29:56.485Z,1020.72
2023-01-21T01:30:56.346Z,1020.76
2023-01-21T01:31:56.218Z,1020.76
2023-01-21T01:32:56.241Z,1020.79
2023-01-21T01:33:56.296Z,1020.79
2023-01-21T01:35:56.317Z,1020.78
2023-01-21T01:36:56.654Z,1020.79
2023-01-21T01:37:56.375Z,1020.80
2023-01-21T01:38:56.413Z,1020.85
2023-01-21T01:40:56.450Z,1020.89
2023-01-21T01:41:56.578Z,1020.90
2023-01-21T01:42:56.516Z,1020.93
2023-01-21T01:43:56.928Z,1020.98
2023-01-21T01:44:56.585Z,1020.97
2023-01-21T01:45:56.594Z,1021.01
2023-01-21T01:46:56.611Z,1021.08
2023-01-21T01:48:56.662Z,1021.06
2023-01-21T01:49:56.712Z,1021.09
2023-01-21T01:50:57.088Z,1021.10
2023-01-21T01:51:56.744Z,1021.12
2023-01-21T01:52:56.771Z,1021.14
2023-01-21T01:53:56.803Z,1021.15
2023-01-21T01:54:56.821Z,1021.20
2023-01-21T01:55:56.867Z,1021.18
2023-01-21T01:56:56.874Z,1021.18
2023-01-21T01:57:57.209Z,1021.21
2023-01-21T01:58:56.927Z,1021.23
2023-01-21T01:59:56.963Z,1021.26
2023-01-21T02:00:57.002Z,1021.27
2023-01-21T02:01:57.108Z,1021.30
2023-01-21T02:02:57.112Z,1021.35
2023-01-21T02:03:57.077Z,1021.33
2023-01-21T02:04:57.404Z,1021.31
2023-01-21T02:05:57.146Z,1021.37
2023-01-21T02:06:57.147Z,1021.35
2023-01-21T02:07:57.165Z,1021.37
2023-01-21T02:08:57.188Z,1021.41
2023-01-21T02:09:57.226Z,1021.42
2023-01-21T02:10:57.291Z,1021.44
2023-01-21T02:11:57.275Z,1021.39
2023-01-21T02:12:57.293Z,1021.41
2023-01-21T02:13:57.328Z,1021.40
2023-01-21T02:14:57.347Z,1021.42
2023-01-21T02:15:57.447Z,1021.39
2023-01-21T02:16:57.407Z,1021.40
2023-01-21T02:17:57.729Z,1021.38
2023-01-21T02:18:57.464Z,1021.41
2023-01-21T02:19:57.500Z,1021.45
2023-01-21T02:20:57.517Z,1021.42
2023-01-21T02:21:57.559Z,1021.46
2023-01-21T02:22:57.635Z,1021.45
2023-01-21T02:23:57.889Z,1021.48
2023-01-21T02:24:57.613Z,1021.47
2023-01-21T02:25:57.640Z,1021.52
2023-01-21T02:26:57.665Z,1021.54
2023-01-21T02:28:57.740Z,1021.57
2023-01-21T02:29:58.058Z,1021.56
2023-01-21T02:30:57.967Z,1021.61
2023-01-21T02:31:57.789Z,1021.66
2023-01-21T02:33:57.846Z,1021.68
2023-01-21T02:34:57.883Z,1021.68
2023-01-21T02:35:58.221Z,1021.69
2023-01-21T02:36:57.935Z,1021.72
2023-01-21T02:37:57.981Z,1021.70
2023-01-21T02:38:58.012Z,1021.73
2023-01-21T02:39:58.006Z,1021.72
2023-01-21T02:40:58.038Z,1021.75
2023-01-21T02:41:58.065Z,1021.73
2023-01-21T02:42:58.390Z,1021.75
2023-01-21T02:43:58.116Z,1021.76
2023-01-21T02:44:58.136Z,1021.73
2023-01-21T02:45:58.172Z,1021.73
2023-01-21T02:46:58.245Z,1021.75
2023-01-21T02:47:58.219Z,1021.77
2023-01-21T02:48:58.250Z,1021.79
2023-01-21T02:49:58.571Z,1021.80
2023-01-21T02:50:58.317Z,1021.81
2023-01-21T02:51:58.336Z,1021.81
2023-01-21T02:52:58.348Z,1021.81
2023-01-21T02:53:58.501Z,1021.85
2023-01-21T02:54:58.435Z,1021.86
2023-01-21T02:55:58.435Z,1021.86
2023-01-21T02:56:58.752Z,1021.88
2023-01-21T02:57:58.484Z,1021.89
2023-01-21T02:58:58.866Z,1021.87
2023-01-21T02:59:58.578Z,1021.87
2023-01-21T03:00:58.596Z,1021.87
2023-01-21T03:01:58.602Z,1021.90
2023-01-21T03:02:58.607Z,1021.88
2023-01-21T03:03:58.951Z,1021.92
2023-01-21T03:04:58.684Z,1021.91
2023-01-21T03:05:58.706Z,1021.94
2023-01-21T03:06:58.752Z,1021.96
2023-01-21T03:07:58.742Z,1021.97
2023-01-21T03:08:58.767Z,1021.94
2023-01-21T03:09:58.922Z,1021.96
2023-01-21T03:10:59.128Z,1021.98
2023-01-21T03:11:58.903Z,1022.02
2023-01-21T03:12:58.901Z,1021.98
2023-01-21T03:13:58.920Z,1021.99
2023-01-21T03:14:58.936Z,1022.02
2023-01-21T03:15:59.038Z,1022.01
2023-01-21T03:16:58.999Z,1022.01
2023-01-21T03:17:59.324Z,1022.02
2023-01-21T03:18:59.037Z,1022.02
2023-01-21T03:19:59.071Z,1022.03
2023-01-21T03:20:59.086Z,1022.03
2023-01-21T03:21:59.112Z,1022.05
2023-01-21T03:23:59.180Z,1022.04
2023-01-21T03:24:59.488Z,1022.06
2023-01-21T03:25:59.240Z,1022.04
2023-01-21T03:26:59.241Z,1022.10
2023-01-21T03:27:59.265Z,1022.08
2023-01-21T03:28:59.295Z,1022.07
2023-01-21T03:29:59.327Z,1022.10
2023-01-21T03:31:59.383Z,1022.09
2023-01-21T03:32:59.704Z,1022.12
2023-01-21T03:33:59.425Z,1022.13
2023-01-21T03:34:59.445Z,1022.14
2023-01-21T03:35:59.475Z,1022.19
2023-01-21T03:36:59.504Z,1022.18
2023-01-21T03:37:59.524Z,1022.18
2023-01-21T03:38:59.553Z,1022.22
2023-01-21T03:41:59.953Z,1022.22
2023-01-21T03:42:59.660Z,1022.23
2023-01-21T03:43:59.685Z,1022.24
2023-01-21T03:44:59.715Z,1022.29
2023-01-21T03:45:59.869Z,1022.31
2023-01-21T03:46:59.779Z,1022.33
2023-01-21T03:47:59.810Z,1022.33
2023-01-21T03:50:00.164Z,1022.39
2023-01-21T03:50:59.928Z,1022.36
2023-01-21T03:51:59.897Z,1022.39
2023-01-21T03:52:59.922Z,1022.39
2023-01-21T03:53:59.957Z,1022.37
2023-01-21T03:54:59.976Z,1022.44
2023-01-21T03:56:00.305Z,1022.45
2023-01-21T03:57:00.035Z,1022.48
2023-01-21T03:58:00.137Z,1022.47
2023-01-21T03:59:00.094Z,1022.48
2023-01-21T04:00:00.128Z,1022.45
2023-01-21T04:01:00.169Z,1022.50
2023-01-21T04:02:00.230Z,1022.48
2023-01-21T04:03:00.475Z,1022.47
2023-01-21T04:04:00.239Z,1022.46
2023-01-21T04:05:00.239Z,1022.50
2023-01-21T04:06:00.263Z,1022.51
2023-01-21T04:07:00.285Z,1022.51
2023-01-21T04:08:00.310Z,1022.52
2023-01-21T04:09:00.335Z,1022.52
2023-01-21T04:10:00.760Z,1022.57
2023-01-21T04:11:00.399Z,1022.59
2023-01-21T04:12:00.421Z,1022.60
2023-01-21T04:13:00.437Z,1022.59
2023-01-21T04:14:00.487Z,1022.64
2023-01-21T04:15:00.506Z,1022.61
2023-01-21T04:16:00.650Z,1022.67
2023-01-21T04:17:00.840Z,1022.59
2023-01-21T04:18:00.577Z,1022.65
2023-01-21T04:19:00.589Z,1022.61
2023-01-21T04:20:00.628Z,1022.63
2023-01-21T04:21:00.646Z,1022.65
2023-01-21T04:22:00.675Z,1022.64
2023-01-21T04:23:00.704Z,1022.66
2023-01-21T04:24:01.032Z,1022.69
2023-01-21T04:25:00.762Z,1022.63
2023-01-21T04:26:01.552Z,1022.69
2023-01-21T04:27:00.802Z,1022.70
2023-01-21T04:28:00.955Z,1022.69
2023-01-21T04:29:00.858Z,1022.74
2023-01-21T04:30:00.913Z,1022.73
2023-01-21T04:31:01.233Z,1022.75
2023-01-21T04:32:00.982Z,1022.74
2023-01-21T04:33:00.957Z,1022.76
2023-01-21T04:34:00.998Z,1022.77
2023-01-21T04:35:01.014Z,1022.79
2023-01-21T04:36:01.051Z,1022.81
2023-01-21T04:37:01.073Z,1022.80
2023-01-21T04:38:01.396Z,1022.77
2023-01-21T04:39:01.118Z,1022.78
2023-01-21T04:40:01.240Z,1022.78
2023-01-21T04:41:01.270Z,1022.79
2023-01-21T04:42:01.196Z,1022.79
2023-01-21T04:43:01.231Z,1022.72
2023-01-21T04:45:01.280Z,1022.81
2023-01-21T04:46:01.701Z,1022.83
2023-01-21T04:47:01.339Z,1022.82
2023-01-21T04:48:01.347Z,1022.85
2023-01-21T04:49:01.396Z,1022.85
2023-01-21T04:50:01.401Z,1022.87
2023-01-21T04:51:01.451Z,1022.80
2023-01-21T04:52:01.458Z,1022.78
2023-01-21T04:53:01.784Z,1022.83
2023-01-21T04:54:01.534Z,1022.85
2023-01-21T04:55:01.555Z,1022.86
2023-01-21T04:56:01.561Z,1022.88
2023-01-21T04:57:01.610Z,1022.86
2023-01-21T04:58:01.616Z,1022.83
2023-01-21T04:59:01.636Z,1022.86
2023-01-21T05:00:02.964Z,1022.88
2023-01-21T05:01:01.746Z,1022.87
2023-01-21T05:02:01.759Z,1022.91
2023-01-21T05:03:01.740Z,1022.94
2023-01-21T05:04:01.821Z,1022.93
2023-01-21T05:05:01.791Z,1022.97
2023-01-21T05:06:01.816Z,1022.99
2023-01-21T05:07:02.143Z,1023.05
2023-01-21T05:08:01.867Z,1023.03
2023-01-21T05:09:01.905Z,1023.05
2023-01-21T05:10:01.929Z,1023.04
2023-01-21T05:11:01.953Z,1023.04
2023-01-21T05:12:01.968Z,1023.04
2023-01-21T05:13:02.005Z,1023.03
2023-01-21T05:14:02.340Z,1023.02
2023-01-21T05:15:02.047Z,1023.02
2023-01-21T05:16:02.120Z,1023.09
2023-01-21T05:17:02.267Z,1023.10
2023-01-21T05:18:02.160Z,1023.08
2023-01-21T05:19:02.173Z,1023.12
2023-01-21T05:20:02.396Z,1023.12
2023-01-21T05:21:02.513Z,1023.10
2023-01-21T05:22:02.243Z,1023.10
2023-01-21T05:23:02.257Z,1023.09
2023-01-21T05:25:02.323Z,1023.10
2023-01-21T05:27:02.378Z,1023.11
2023-01-21T05:28:02.691Z,1023.14
2023-01-21T05:29:02.415Z,1023.11
2023-01-21T05:30:02.469Z,1023.19
2023-01-21T05:31:02.628Z,1023.17
2023-01-21T05:32:02.592Z,1023.25
2023-01-21T05:34:02.568Z,1023.26
2023-01-21T05:35:02.881Z,1023.25
2023-01-21T05:36:02.596Z,1023.26
2023-01-21T05:37:02.621Z,1023.28
2023-01-21T05:38:02.661Z,1023.34
2023-01-21T05:39:02.675Z,1023.33
2023-01-21T05:40:02.723Z,1023.39
2023-01-21T05:42:02.752Z,1023.36
2023-01-21T05:43:03.085Z,1023.40
2023-01-21T05:44:02.811Z,1023.40
2023-01-21T05:45:02.879Z,1023.43
2023-01-21T05:46:03.006Z,1023.45
2023-01-21T05:47:02.914Z,1023.50
2023-01-21T05:48:02.906Z,1023.50
2023-01-21T05:49:02.939Z,1023.54
2023-01-21T05:50:03.290Z,1023.55
2023-01-21T05:51:02.997Z,1023.57
2023-01-21T05:52:03.014Z,1023.56
2023-01-21T05:53:03.105Z,1023.60
2023-01-21T05:54:03.060Z,1023.60
2023-01-21T05:55:03.231Z,1023.59
2023-01-21T05:56:03.117Z,1023.61
2023-01-21T05:57:03.441Z,1023.60
2023-01-21T05:58:03.162Z,1023.64
2023-01-21T05:59:03.189Z,1023.64
2023-01-21T06:00:03.220Z,1023.62
2023-01-21T06:01:03.265Z,1023.63
2023-01-21T06:02:03.290Z,1023.70
2023-01-21T06:03:03.293Z,1023.70
2023-01-21T06:04:03.619Z,1023.67
2023-01-21T06:05:03.352Z,1023.77
2023-01-21T06:06:03.400Z,1023.76
2023-01-21T06:07:03.396Z,1023.80
2023-01-21T06:08:03.425Z,1023.83
2023-01-21T06:09:03.474Z,1023.84
2023-01-21T06:10:03.477Z,1023.83
2023-01-21T06:11:03.813Z,1023.84
2023-01-21T06:12:03.548Z,1023.83
2023-01-21T06:13:03.554Z,1023.84
2023-01-21T06:14:03.579Z,1023.89
2023-01-21T06:16:03.690Z,1023.92
2023-01-21T06:17:03.680Z,1023.96
2023-01-21T06:18:03.981Z,1023.95
2023-01-21T06:20:03.836Z,1023.98
2023-01-21T06:21:03.774Z,1023.99
2023-01-21T06:22:03.805Z,1023.96
2023-01-21T06:23:03.814Z,1023.99
2023-01-21T06:24:03.841Z,1024.01
2023-01-21T06:25:04.164Z,1024.02
2023-01-21T06:26:03.898Z,1023.98
2023-01-21T06:27:03.920Z,1023.98
2023-01-21T06:28:03.940Z,1023.99
2023-01-21T06:29:03.966Z,1023.96
2023-01-21T06:30:04.000Z,1023.95
2023-01-21T06:31:04.469Z,1024.00
2023-01-21T06:32:04.206Z,1023.98
2023-01-21T06:33:04.105Z,1024.05
2023-01-21T06:34:04.095Z,1024.07
2023-01-21T06:35:04.135Z,1024.03
2023-01-21T06:36:04.388Z,1024.05
2023-01-21T06:37:04.660Z,1024.07
2023-01-21T06:38:04.457Z,1024.07
2023-01-21T06:39:04.460Z,1024.09
2023-01-21T06:40:04.541Z,1024.09
2023-01-21T06:41:04.335Z,1024.11
2023-01-21T06:42:04.345Z,1024.16
2023-01-21T06:43:04.640Z,1024.15
2023-01-21T06:44:04.363Z,1024.15
2023-01-21T06:45:04.418Z,1024.13
2023-01-21T06:46:04.487Z,1024.18
2023-01-21T06:47:04.509Z,1024.19
2023-01-21T06:48:04.539Z,1024.20
2023-01-21T06:49:04.481Z,1024.19
2023-01-21T06:50:04.812Z,1024.22
2023-01-21T06:51:04.547Z,1024.23
2023-01-21T06:52:04.557Z,1024.25
2023-01-21T06:53:04.581Z,1024.26
2023-01-21T06:54:04.735Z,1024.27
2023-01-21T06:55:04.636Z,1024.27
2023-01-21T06:56:04.668Z,1024.27
2023-01-21T06:57:04.994Z,1024.30
2023-01-21T06:58:04.716Z,1024.29
2023-01-21T06:59:04.739Z,1024.32
2023-01-21T07:00:04.775Z,1024.33
2023-01-21T07:01:04.791Z,1024.30
2023-01-21T07:02:04.813Z,1024.32
2023-01-21T07:03:04.881Z,1024.33
2023-01-21T07:04:05.193Z,1024.35
2023-01-21T07:05:04.946Z,1024.37
2023-01-21T07:06:04.916Z,1024.41
2023-01-21T07:07:04.943Z,1024.43
2023-01-21T07:08:04.967Z,1024.44
2023-01-21T07:09:05.000Z,1024.47
2023-01-21T07:10:05.040Z,1024.52
2023-01-21T07:11:05.361Z,1024.53
2023-01-21T07:12:05.073Z,1024.54
2023-01-21T07:13:05.115Z,1024.59
2023-01-21T07:14:05.123Z,1024.63
2023-01-21T07:15:05.153Z,1024.63
2023-01-21T07:16:06.918Z,1024.61
2023-01-21T07:17:05.207Z,1024.66
2023-01-21T07:18:05.624Z,1024.66
2023-01-21T07:19:05.261Z,1024.74
2023-01-21T07:20:05.295Z,1024.73
2023-01-21T07:22:05.496Z,1024.74
2023-01-21T07:23:05.360Z,1024.71
2023-01-21T07:24:05.410Z,1024.71
2023-01-21T07:25:05.714Z,1024.73
2023-01-21T07:26:05.457Z,1024.75
2023-01-21T07:27:05.736Z,1024.80
2023-01-21T07:28:05.486Z,1024.81
2023-01-21T07:29:05.639Z,1024.82
2023-01-21T07:30:05.662Z,1024.86
2023-01-21T07:31:05.660Z,1024.93
2023-01-21T07:32:05.959Z,1024.90
2023-01-21T07:33:05.620Z,1024.91
2023-01-21T07:34:05.651Z,1024.92
2023-01-21T07:35:05.663Z,1024.94
2023-01-21T07:36:05.699Z,1024.98
2023-01-21T07:37:05.732Z,1025.00
2023-01-21T07:38:05.740Z,1025.01
2023-01-21T07:39:06.081Z,1025.01
2023-01-21T07:40:05.797Z,1025.08
2023-01-21T07:41:05.816Z,1025.03
2023-01-21T07:42:05.862Z,1025.06
2023-01-21T07:43:05.878Z,1025.07
2023-01-21T07:44:05.909Z,1025.04
2023-01-21T07:45:05.923Z,1025.09
2023-01-21T07:46:06.248Z,1025.09
2023-01-21T07:47:05.975Z,1025.06
2023-01-21T07:48:06.003Z,1025.06
2023-01-21T07:49:06.039Z,1025.08
2023-01-21T07:50:06.055Z,1025.09
2023-01-21T07:51:06.264Z,1025.14
2023-01-21T07:52:06.103Z,1025.09
2023-01-21T07:53:06.463Z,1025.11
2023-01-21T07:54:06.149Z,1025.10
2023-01-21T07:55:06.183Z,1025.11
2023-01-21T07:56:06.225Z,1025.11
2023-01-21T07:57:06.303Z,1025.11
2023-01-21T07:58:06.279Z,1025.11
2023-01-21T08:00:06.612Z,1025.11
2023-01-21T08:01:06.444Z,1025.11
2023-01-21T08:02:06.528Z,1025.12
2023-01-21T08:03:06.385Z,1025.15
2023-01-21T08:04:06.414Z,1025.18
2023-01-21T08:05:06.451Z,1025.19
2023-01-21T08:06:06.466Z,1025.18
2023-01-21T08:07:06.793Z,1025.20
2023-01-21T08:08:06.509Z,1025.22
2023-01-21T08:09:06.542Z,1025.26
2023-01-21T08:10:06.561Z,1025.31
2023-01-21T08:11:06.587Z,1025.30
2023-01-21T08:12:06.667Z,1025.35
2023-01-21T08:13:06.640Z,1025.36
2023-01-21T08:14:06.999Z,1025.39
2023-01-21T08:15:06.694Z,1025.40
2023-01-21T08:16:07.002Z,1025.42
2023-01-21T08:17:06.751Z,1025.41
2023-01-21T08:18:06.776Z,1025.45
2023-01-21T08:19:06.797Z,1025.44
2023-01-21T08:20:06.825Z,1025.47
2023-01-21T08:21:07.154Z,1025.44
2023-01-21T08:22:06.880Z,1025.51
2023-01-21T08:23:06.903Z,1025.47
2023-01-21T08:24:06.933Z,1025.50
2023-01-21T08:25:06.952Z,1025.51
2023-01-21T08:26:06.982Z,1025.49
2023-01-21T08:27:07.051Z,1025.48
2023-01-21T08:28:07.348Z,1025.49
2023-01-21T08:29:07.075Z,1025.52
2023-01-21T08:30:07.162Z,1025.51
2023-01-21T08:31:07.300Z,1025.54
2023-01-21T08:32:07.130Z,1025.51
2023-01-21T08:34:07.179Z,1025.56
2023-01-21T08:35:07.465Z,1025.53
2023-01-21T08:36:07.246Z,1025.56
2023-01-21T08:37:07.302Z,1025.56
2023-01-21T08:39:07.320Z,1025.59
2023-01-21T08:40:07.437Z,1025.58
2023-01-21T08:41:07.661Z,1025.62
2023-01-21T08:42:07.398Z,1025.61
2023-01-21T08:43:07.421Z,1025.63
2023-01-21T08:44:07.442Z,1025.63
2023-01-21T08:45:07.466Z,1025.71
2023-01-21T08:46:07.625Z,1025.74
2023-01-21T08:47:07.827Z,1025.72
2023-01-21T08:48:07.553Z,1025.73
2023-01-21T08:49:07.568Z,1025.79
2023-01-21T08:50:07.620Z,1025.77
2023-01-21T08:51:07.983Z,1025.84
2023-01-21T08:52:07.649Z,1025.86
2023-01-21T08:53:07.972Z,1025.90
2023-01-21T08:54:07.701Z,1025.90
2023-01-21T08:55:07.733Z,1025.88
2023-01-21T08:56:07.762Z,1025.89
2023-01-21T08:57:07.856Z,1025.94
2023-01-21T08:58:07.810Z,1025.93
2023-01-21T08:59:07.832Z,1025.97
2023-01-21T09:00:08.153Z,1025.97
2023-01-21T09:01:07.943Z,1026.00
2023-01-21T09:02:07.980Z,1026.06
2023-01-21T09:03:07.937Z,1026.07
2023-01-21T09:04:07.968Z,1026.05
2023-01-21T09:05:07.999Z,1026.06
2023-01-21T09:06:08.016Z,1026.07
2023-01-21T09:07:08.338Z,1026.14
2023-01-21T09:08:08.059Z,1026.13
2023-01-21T09:09:08.092Z,1026.13
2023-01-21T09:10:08.135Z,1026.10
2023-01-21T09:11:08.190Z,1026.15
2023-01-21T09:12:08.171Z,1026.15
2023-01-21T09:13:08.292Z,1026.11
2023-01-21T09:14:08.582Z,1026.19
2023-01-21T09:15:08.272Z,1026.17
2023-01-21T09:16:12.193Z,1026.14
2023-01-21T09:17:08.294Z,1026.16
2023-01-21T09:18:08.344Z,1026.22
2023-01-21T09:20:08.374Z,1026.24
2023-01-21T09:21:08.702Z,1026.25
2023-01-21T09:22:08.441Z,1026.27
2023-01-21T09:23:08.458Z,1026.31
2023-01-21T09:24:08.482Z,1026.34
2023-01-21T09:25:08.500Z,1026.32
2023-01-21T09:26:08.526Z,1026.32
2023-01-21T09:27:08.561Z,1026.31
2023-01-21T09:28:08.884Z,1026.31
2023-01-21T09:30:08.634Z,1026.35
2023-01-21T09:31:08.662Z,1026.42
2023-01-21T09:32:08.680Z,1026.42
2023-01-21T09:33:08.710Z,1026.44
2023-01-21T09:34:08.755Z,1026.47
2023-01-21T09:35:09.142Z,1026.43
2023-01-21T09:36:08.840Z,1026.51
2023-01-21T09:37:08.820Z,1026.46
2023-01-21T09:38:08.838Z,1026.52
2023-01-21T09:39:08.870Z,1026.48
2023-01-21T09:40:08.891Z,1026.47
2023-01-21T09:41:08.934Z,1026.49
2023-01-21T09:42:09.239Z,1026.51
2023-01-21T09:43:08.968Z,1026.54
2023-01-21T09:44:08.992Z,1026.55
2023-01-21T09:45:09.023Z,1026.53
2023-01-21T09:46:09.122Z,1026.56
2023-01-21T09:48:09.398Z,1026.60
2023-01-21T09:49:09.143Z,1026.58
2023-01-21T09:50:09.170Z,1026.60
2023-01-21T09:51:09.205Z,1026.60
2023-01-21T09:52:09.199Z,1026.60
2023-01-21T09:53:09.227Z,1026.55
2023-01-21T09:54:09.258Z,1026.60
2023-01-21T09:55:09.646Z,1026.52
2023-01-21T09:56:09.311Z,1026.60
2023-01-21T09:57:09.384Z,1026.58
2023-01-21T09:58:09.383Z,1026.59
2023-01-21T09:59:09.386Z,1026.58
2023-01-21T10:00:09.554Z,1026.64
2023-01-21T10:01:09.807Z,1026.59
2023-01-21T10:02:09.463Z,1026.64
2023-01-21T10:03:09.542Z,1026.60
2023-01-21T10:05:09.558Z,1026.70
2023-01-21T10:06:09.585Z,1026.68
2023-01-21T10:07:09.887Z,1026.69
2023-01-21T10:08:09.639Z,1026.73
2023-01-21T10:09:09.649Z,1026.77
2023-01-21T10:10:09.675Z,1026.74
2023-01-21T10:11:09.708Z,1026.76
2023-01-21T10:12:09.723Z,1026.72
2023-01-21T10:13:10.052Z,1026.71
2023-01-21T10:14:09.777Z,1026.70
2023-01-21T10:15:09.825Z,1026.70
2023-01-21T10:16:09.826Z,1026.68
2023-01-21T10:17:09.855Z,1026.63
2023-01-21T10:18:09.875Z,1026.64
2023-01-21T10:19:09.906Z,1026.62
2023-01-21T10:20:10.352Z,1026.61
2023-01-21T10:21:09.954Z,1026.59
2023-01-21T10:22:10.024Z,1026.61
2023-01-21T10:23:10.040Z,1026.62
2023-01-21T10:24:10.041Z,1026.61
2023-01-21T10:25:10.060Z,1026.63
2023-01-21T10:26:10.200Z,1026.64
2023-01-21T10:27:10.417Z,1026.68
2023-01-21T10:28:10.158Z,1026.69
2023-01-21T10:29:10.224Z,1026.69
2023-01-21T10:30:10.302Z,1026.63
2023-01-21T10:31:10.356Z,1026.64
2023-01-21T10:32:10.266Z,1026.62
2023-01-21T10:33:10.276Z,1026.66
2023-01-21T10:34:10.597Z,1026.60
2023-01-21T10:35:10.383Z,1026.68
2023-01-21T10:36:10.354Z,1026.64
2023-01-21T10:37:10.403Z,1026.65
2023-01-21T10:38:10.422Z,1026.62
2023-01-21T10:39:10.507Z,1026.62
2023-01-21T10:40:10.452Z,1026.68
2023-01-21T10:41:10.789Z,1026.64
2023-01-21T10:42:10.505Z,1026.73
2023-01-21T10:43:10.560Z,1026.65
2023-01-21T10:44:10.561Z,1026.65
2023-01-21T10:45:10.599Z,1026.67
2023-01-21T10:46:10.724Z,1026.68
2023-01-21T10:47:10.742Z,1026.70
2023-01-21T10:49:11.007Z,1026.72
2023-01-21T10:50:10.712Z,1026.71
2023-01-21T10:51:10.772Z,1026.70
2023-01-21T10:52:10.771Z,1026.68
2023-01-21T10:53:10.804Z,1026.67
2023-01-21T10:54:10.850Z,1026.66
2023-01-21T10:55:10.856Z,1026.67
2023-01-21T10:56:11.176Z,1026.69
2023-01-21T10:57:10.911Z,1026.66
2023-01-21T10:58:10.931Z,1026.68
2023-01-21T10:59:10.958Z,1026.74
2023-01-21T11:00:10.980Z,1026.75
2023-01-21T11:01:11.120Z,1026.69
2023-01-21T11:02:11.100Z,1026.71
2023-01-21T11:04:11.394Z,1026.77
2023-01-21T11:05:11.108Z,1026.72
2023-01-21T11:06:11.134Z,1026.75
2023-01-21T11:07:11.172Z,1026.72
2023-01-21T11:08:11.194Z,1026.69
2023-01-21T11:09:11.236Z,1026.67
2023-01-21T11:10:11.427Z,1026.70
2023-01-21T11:12:11.601Z,1026.67
2023-01-21T11:13:11.320Z,1026.74
2023-01-21T11:14:11.350Z,1026.70
2023-01-21T11:15:11.430Z,1026.71
2023-01-21T11:16:11.487Z,1026.70
2023-01-21T11:17:11.427Z,1026.70
2023-01-21T11:18:11.809Z,1026.71
2023-01-21T11:19:11.476Z,1026.73
2023-01-21T11:20:11.570Z,1026.75
2023-01-21T11:21:11.528Z,1026.74
2023-01-21T11:22:11.554Z,1026.68
2023-01-21T11:23:11.598Z,1026.69
2023-01-21T11:24:11.605Z,1026.71
2023-01-21T11:25:11.933Z,1026.71
2023-01-21T11:26:11.835Z,1026.72
2023-01-21T11:27:11.810Z,1026.70
2023-01-21T11:28:11.883Z,1026.70
2023-01-21T11:29:11.852Z,1026.73
2023-01-21T11:30:31.868Z,1026.74
2023-01-21T11:31:12.832Z,1026.72
2023-01-21T11:32:12.073Z,1026.74
2023-01-21T11:33:11.952Z,1026.74
2023-01-21T11:34:11.935Z,1026.70
2023-01-21T11:35:11.901Z,1026.73
2023-01-21T11:36:11.919Z,1026.71
2023-01-21T11:37:11.951Z,1026.69
2023-01-21T11:38:12.276Z,1026.73
2023-01-21T11:39:12.004Z,1026.73
2023-01-21T11:40:12.098Z,1026.72
2023-01-21T11:41:12.137Z,1026.74
2023-01-21T11:42:12.161Z,1026.78
2023-01-21T11:43:12.160Z,1026.76
2023-01-21T11:44:12.290Z,1026.75
2023-01-21T11:45:12.514Z,1026.79
2023-01-21T11:46:12.255Z,1026.77
2023-01-21T11:47:12.408Z,1026.76
2023-01-21T11:48:12.329Z,1026.71
2023-01-21T11:49:12.284Z,1026.74
2023-01-21T11:50:12.311Z,1026.71
2023-01-21T11:51:12.391Z,1026.67
2023-01-21T11:52:12.872Z,1026.67
2023-01-21T11:53:12.409Z,1026.68
2023-01-21T11:54:12.411Z,1026.65
2023-01-21T11:55:12.452Z,1026.66
2023-01-21T11:56:12.489Z,1026.65
2023-01-21T11:57:12.836Z,1026.65
2023-01-21T11:58:12.642Z,1026.64
2023-01-21T11:59:12.882Z,1026.64
2023-01-21T12:00:12.649Z,1026.65
2023-01-21T12:01:12.589Z,1026.64
2023-01-21T12:02:12.822Z,1026.62
2023-01-21T12:03:12.844Z,1026.63
2023-01-21T12:05:12.837Z,1026.61
2023-01-21T12:06:13.171Z,1026.59
2023-01-21T12:07:12.889Z,1026.62
2023-01-21T12:08:12.931Z,1026.59
2023-01-21T12:09:12.903Z,1026.59
2023-01-21T12:10:13.167Z,1026.56
2023-01-21T12:11:12.957Z,1026.53
2023-01-21T12:12:12.867Z,1026.52
2023-01-21T12:13:13.208Z,1026.56
2023-01-21T12:14:13.009Z,1026.54
2023-01-21T12:15:12.955Z,1026.54
2023-01-21T12:16:13.094Z,1026.54
2023-01-21T12:17:13.001Z,1026.53
2023-01-21T12:18:13.086Z,1026.49
2023-01-21T12:19:13.083Z,1026.50
2023-01-21T12:20:13.397Z,1026.52
2023-01-21T12:21:13.113Z,1026.46
2023-01-21T12:22:13.134Z,1026.42
2023-01-21T12:23:13.165Z,1026.38
2023-01-21T12:24:13.284Z,1026.38
2023-01-21T12:25:13.210Z,1026.38
2023-01-21T12:27:13.571Z,1026.38
2023-01-21T12:28:13.300Z,1026.38
2023-01-21T12:29:13.401Z,1026.38
2023-01-21T12:30:13.417Z,1026.39
2023-01-21T12:31:13.497Z,1026.36
2023-01-21T12:32:13.402Z,1026.35
2023-01-21T12:33:13.846Z,1026.33
2023-01-21T12:34:13.461Z,1026.37
2023-01-21T12:35:13.481Z,1026.36
2023-01-21T12:36:13.537Z,1026.37
2023-01-21T12:37:13.575Z,1026.37
2023-01-21T12:38:13.553Z,1026.38
2023-01-21T12:39:13.895Z,1026.36
2023-01-21T12:40:13.640Z,1026.33
2023-01-21T12:41:13.648Z,1026.36